Time;durP1;ratioP1;P1;durP2;ratioP2;P2;SDS_P1;SDS_P2;PMS_P1;PMS_P2;Temp;Humidity;BMP_temperature;BMP_pressure;BME280_temperature;BME280_humidity;BME280_pressure;Samples;Min_cycle;Max_cycle;Signal;HPM_P1;HPM_P2
2022/12/03 00:01:12;;;;;;;16.30;8.07;;;;;;;7.28;100.00;101002.25;5087456;28;20058;-30
2022/12/03 00:03:38;;;;;;;15.07;9.25;;;;;;;7.33;100.00;101004.38;5087925;28;20404;-27
2022/12/03 00:06:03;;;;;;;16.98;8.65;;;;;;;7.34;100.00;100998.06;5087549;28;20036;-32
2022/12/03 00:08:29;;;;;;;17.90;9.48;;;;;;;7.14;100.00;100995.84;5087738;28;20103;-29
2022/12/03 00:10:54;;;;;;;17.77;10.02;;;;;;;7.29;100.00;100987.97;5087473;28;20054;-28
2022/12/03 00:13:20;;;;;;;25.52;14.85;;;;;;;7.20;100.00;100987.19;5087875;28;20107;-33
2022/12/03 00:15:45;;;;;;;28.63;15.52;;;;;;;7.20;100.00;100994.34;5068900;28;20502;-27
2022/12/03 00:18:10;;;;;;;21.88;10.70;;;;;;;7.24;100.00;101011.56;5087600;28;20044;-30
2022/12/03 00:20:36;;;;;;;19.35;9.77;;;;;;;6.93;100.00;100988.50;5087452;28;20021;-28
2022/12/03 00:23:01;;;;;;;23.40;10.13;;;;;;;7.14;100.00;100990.53;5069044;28;20057;-31
2022/12/03 00:25:27;;;;;;;24.20;11.00;;;;;;;7.23;100.00;100992.16;5087327;28;20507;-32
2022/12/03 00:27:52;;;;;;;25.95;12.07;;;;;;;7.36;100.00;101009.34;5087087;28;20031;-31
2022/12/03 00:30:18;;;;;;;27.48;11.95;;;;;;;6.91;100.00;100979.88;5087692;28;20471;-28
2022/12/03 00:32:43;;;;;;;27.48;12.23;;;;;;;7.04;100.00;101001.34;5087415;28;20137;-36
2022/12/03 00:35:08;;;;;;;28.67;13.77;;;;;;;7.00;100.00;100992.09;5087242;28;20380;-29
2022/12/03 00:37:34;;;;;;;29.50;11.93;;;;;;;7.03;100.00;100996.25;5087075;28;20048;-29
2022/12/03 00:40:01;;;;;;;32.70;13.82;;;;;;;7.09;100.00;101008.81;5086881;28;20038;-30
2022/12/03 00:42:26;;;;;;;33.38;15.65;;;;;;;7.20;100.00;101027.00;5068733;28;20572;-29
2022/12/03 00:44:52;;;;;;;35.58;15.82;;;;;;;7.07;100.00;101026.72;5087307;28;20031;-29
2022/12/03 00:47:17;;;;;;;39.42;15.90;;;;;;;7.18;100.00;101028.16;5087133;28;20042;-31
2022/12/03 00:49:42;;;;;;;30.90;13.30;;;;;;;7.00;100.00;101015.13;5087162;28;20422;-31
2022/12/03 00:52:08;;;;;;;40.78;20.67;;;;;;;7.08;100.00;101028.38;5087018;28;20110;-29
2022/12/03 00:54:33;;;;;;;20.95;10.98;;;;;;;7.14;100.00;101017.06;5086660;28;20028;-28
2022/12/03 00:56:59;;;;;;;24.58;11.98;;;;;;;7.29;100.00;101034.91;5087036;28;20467;-30
2022/12/03 00:59:24;;;;;;;36.15;20.13;;;;;;;7.08;100.00;101038.97;5086982;28;20020;-29
2022/12/03 01:01:50;;;;;;;28.45;16.02;;;;;;;7.03;100.00;101043.97;5086751;28;20024;-29
2022/12/03 01:04:15;;;;;;;27.25;14.57;;;;;;;6.90;100.00;101022.47;5086867;28;20419;-29
2022/12/03 01:06:40;;;;;;;26.00;15.95;;;;;;;7.06;100.00;101043.63;5086846;28;20527;-29
2022/12/03 01:09:06;;;;;;;20.38;9.55;;;;;;;6.94;100.00;101034.38;5086733;28;20020;-28
2022/12/03 01:11:37;;;;;;;15.52;7.93;;;;;;;6.88;100.00;101016.50;5086664;28;20675;-34
2022/12/03 01:14:14;;;;;;;19.17;9.25;;;;;;;6.91;100.00;101032.91;5068291;28;20144;-31
2022/12/03 01:16:41;;;;;;;18.15;10.02;;;;;;;6.86;100.00;101039.72;5086572;28;20047;-29
2022/12/03 01:19:09;;;;;;;17.45;8.32;;;;;;;6.89;100.00;101028.78;5068582;28;20486;-30
2022/12/03 01:21:34;;;;;;;;;;;;;;;7.04;100.00;101035.00;5068770;28;20031;-31
2022/12/03 01:24:00;;;;;;;16.15;8.98;;;;;;;6.96;100.00;101040.34;5087036;28;19919;-29
2022/12/03 01:26:25;;;;;;;14.48;9.52;;;;;;;7.12;100.00;101024.38;5086558;28;20028;-30
2022/12/03 01:28:51;;;;;;;14.00;7.45;;;;;;;7.15;100.00;101044.41;5086777;28;20039;-28
2022/12/03 01:34:02;;;;;;;14.98;7.72;;;;;;;6.82;100.00;101026.81;5086626;28;20039;-29
2022/12/03 01:36:27;;;;;;;12.07;6.03;;;;;;;6.93;100.00;101030.91;5086814;28;20032;-28
2022/12/03 01:38:52;;;;;;;13.68;6.30;;;;;;;6.77;100.00;101015.06;5068700;28;20029;-27
2022/12/03 01:41:19;;;;;;;12.27;6.90;;;;;;;6.91;100.00;101051.47;5086584;28;20161;-29
2022/12/03 01:43:46;;;;;;;12.23;6.60;;;;;;;6.91;100.00;101040.06;5086282;28;20020;-28
2022/12/03 01:46:15;;;;;;;12.18;7.57;;;;;;;6.93;100.00;101040.72;5086613;28;20027;-36
2022/12/03 01:48:41;;;;;;;11.95;7.05;;;;;;;6.90;100.00;101046.34;5067972;28;20023;-29
2022/12/03 01:51:06;;;;;;;11.65;6.40;;;;;;;6.81;100.00;101038.41;5086658;28;20028;-29
2022/12/03 01:53:32;;;;;;;9.68;5.47;;;;;;;6.73;100.00;101057.00;5086420;28;20461;-28
2022/12/03 01:55:57;;;;;;;9.38;5.45;;;;;;;6.86;100.00;101060.94;5068013;28;20253;-32
2022/12/03 01:58:25;;;;;;;9.68;5.57;;;;;;;7.04;100.00;101059.69;5086458;28;20096;-28
2022/12/03 02:00:51;;;;;;;9.98;5.70;;;;;;;7.04;100.00;101049.09;5086410;28;20054;-30
2022/12/03 02:03:23;;;;;;;8.13;4.93;;;;;;;6.80;100.00;101059.78;5086001;28;20453;-29
2022/12/03 02:05:48;;;;;;;8.43;4.80;;;;;;;6.82;100.00;101034.78;5068204;28;20024;-29
2022/12/03 02:08:37;;;;;;;10.73;5.95;;;;;;;7.08;100.00;101057.53;5086751;28;20031;-31
2022/12/03 02:11:13;;;;;;;9.52;5.75;;;;;;;6.95;100.00;101036.06;5068355;28;20451;-27
2022/12/03 02:13:39;;;;;;;9.32;5.18;;;;;;;7.01;100.00;101064.53;5085909;28;20036;-29
2022/12/03 02:16:05;;;;;;;11.18;5.95;;;;;;;6.63;100.00;101041.25;5086080;28;20031;-30
2022/12/03 02:18:30;;;;;;;11.85;6.78;;;;;;;6.91;100.00;101058.63;5086299;28;20035;-29
2022/12/03 02:21:02;;;;;;;10.48;5.53;;;;;;;7.21;100.00;101070.25;5086425;28;20027;-29
2022/12/03 02:23:48;;;;;;;13.27;6.75;;;;;;;6.91;100.00;101075.34;5086702;28;20020;-31
2022/12/03 02:26:13;;;;;;;18.58;10.25;;;;;;;7.06;100.00;101064.84;5090077;28;20169;-33
2022/12/03 02:28:39;;;;;;;12.77;7.03;;;;;;;6.87;100.00;101052.81;5089940;28;20132;-32
2022/12/03 02:31:05;;;;;;;28.63;17.77;;;;;;;7.16;100.00;101068.13;5090298;28;20047;-33
2022/12/03 02:33:31;;;;;;;16.90;8.15;;;;;;;6.81;100.00;101054.31;5089853;28;20104;-28
2022/12/03 02:35:56;;;;;;;18.88;8.13;;;;;;;6.71;100.00;101052.84;5089574;28;20032;-28
2022/12/03 02:38:25;;;;;;;17.35;7.38;;;;;;;6.73;100.00;101054.34;5089969;28;20073;-29
2022/12/03 02:40:57;;;;;;;16.65;7.25;;;;;;;6.70;100.00;101070.59;5089696;28;20036;-28
2022/12/03 02:43:24;;;;;;;17.20;7.43;;;;;;;6.68;100.00;101053.19;5089803;28;20020;-30
2022/12/03 02:45:53;;;;;;;15.80;7.50;;;;;;;6.80;100.00;101052.69;5071062;28;20058;-30
2022/12/03 02:48:30;;;;;;;16.40;7.90;;;;;;;6.64;100.00;101065.97;5071469;28;20511;-28
2022/12/03 02:51:02;;;;;;;18.45;8.23;;;;;;;6.60;100.00;101062.81;5071188;28;20035;-33
2022/12/03 02:53:32;;;;;;;18.05;7.63;;;;;;;6.62;100.00;101052.06;5089807;28;20105;-29
2022/12/03 02:56:00;;;;;;;14.15;7.10;;;;;;;6.71;100.00;101063.47;5089203;28;20488;-29
2022/12/03 02:58:29;;;;;;;18.27;6.70;;;;;;;6.76;100.00;101059.31;5071396;28;20032;-32
2022/12/03 03:00:55;;;;;;;16.90;7.22;;;;;;;6.96;100.00;101062.38;5089456;28;20438;-29
2022/12/03 03:03:21;;;;;;;16.92;7.13;;;;;;;6.88;100.00;101058.94;5089390;28;20050;-29
2022/12/03 03:05:48;;;;;;;14.65;6.07;;;;;;;6.86;100.00;101059.09;5070510;28;20055;-28
2022/12/03 03:08:14;;;;;;;11.25;5.38;;;;;;;6.82;100.00;101066.59;5089444;28;20027;-29
2022/12/03 03:10:41;;;;;;;13.77;6.78;;;;;;;6.95;100.00;101081.16;5089255;28;20030;-28
2022/12/03 03:13:13;;;;;;;13.10;5.68;;;;;;;7.06;100.00;101078.09;5071143;28;20031;-29
2022/12/03 03:15:40;;;;;;;13.45;6.20;;;;;;;7.10;100.00;101060.84;5088706;28;20509;-29
2022/12/03 03:18:09;;;;;;;11.30;5.50;;;;;;;7.16;100.00;101077.91;5088777;28;20060;-30
2022/12/03 03:20:35;;;;;;;14.48;5.97;;;;;;;7.17;100.00;101068.94;5089333;28;20028;-28
2022/12/03 03:23:21;;;;;;;16.45;6.05;;;;;;;7.06;100.00;101075.47;5089123;28;20032;-33
2022/12/03 03:26:08;;;;;;;17.30;6.97;;;;;;;7.21;100.00;101075.56;5070727;28;20047;-28
2022/12/03 03:28:41;;;;;;;16.00;6.45;;;;;;;6.95;100.00;101073.19;5070693;28;20038;-28
2022/12/03 03:31:08;;;;;;;15.45;6.10;;;;;;;7.09;100.00;101072.47;5070949;28;20043;-30
2022/12/03 03:33:35;;;;;;;15.80;6.70;;;;;;;7.21;100.00;101080.88;5089294;28;20032;-33
2022/12/03 03:36:01;;;;;;;14.02;6.03;;;;;;;7.20;100.00;101074.75;5088586;28;20024;-31
2022/12/03 03:38:28;;;;;;;16.17;6.20;;;;;;;7.20;100.00;101066.78;5088998;28;20457;-33
2022/12/03 03:40:57;;;;;;;13.00;6.07;;;;;;;7.14;100.00;101054.22;5088784;28;20020;-30
2022/12/03 03:43:23;;;;;;;;;;;;;;;7.19;100.00;101081.06;5089141;28;20161;-28
2022/12/03 03:45:50;;;;;;;12.55;5.53;;;;;;;7.08;100.00;101062.84;5088643;28;19991;-27
2022/12/03 03:48:16;;;;;;;13.57;6.03;;;;;;;7.10;100.00;101068.81;5088556;28;20039;-30
2022/12/03 03:50:43;;;;;;;14.57;6.45;;;;;;;6.94;100.00;101063.56;5088734;28;20028;-28
2022/12/03 03:53:10;;;;;;;14.98;6.07;;;;;;;6.87;100.00;101062.59;5088419;28;20036;-30
2022/12/03 03:55:37;;;;;;;14.43;5.90;;;;;;;7.18;100.00;101068.78;5088736;28;20502;-29
2022/12/03 03:58:02;;;;;;;15.18;5.90;;;;;;;7.08;100.00;101086.72;5069559;28;20054;-29
2022/12/03 04:00:28;;;;;;;15.60;6.40;;;;;;;7.00;100.00;101089.41;5070189;28;20396;-30
2022/12/03 04:02:54;;;;;;;11.27;5.75;;;;;;;7.09;100.00;101077.78;5088320;28;20066;-28
2022/12/03 04:05:22;;;;;;;17.63;11.40;;;;;;;6.97;100.00;101087.09;5088684;28;20039;-35
2022/12/03 04:07:48;;;;;;;13.93;7.72;;;;;;;6.90;100.00;101099.38;5069481;28;20487;-27
2022/12/03 04:13:00;;;;;;;27.00;15.25;;;;;;;7.21;100.00;101097.63;5088278;28;20035;-28
2022/12/03 04:15:25;;;;;;;20.10;12.07;;;;;;;7.08;100.00;101075.28;5088058;28;20028;-28
2022/12/03 04:20:36;;;;;;;34.85;28.13;;;;;;;7.21;100.00;101099.44;5088340;28;20107;-28
2022/12/03 04:23:01;;;;;;;25.30;19.90;;;;;;;7.17;100.00;101096.31;5069262;28;20578;-28
2022/12/03 04:36:39;;;;;;;13.90;8.00;;;;;;;7.21;100.00;101115.34;5087646;28;20088;-30
2022/12/03 04:39:04;;;;;;;12.10;5.18;;;;;;;7.32;100.00;101124.78;5087726;28;20024;-27
2022/12/03 04:41:30;;;;;;;11.15;5.78;;;;;;;7.33;100.00;101110.50;5087293;28;20024;-28
2022/12/03 04:46:39;;;;;;;7.93;4.43;;;;;;;7.24;100.00;101126.47;5087085;28;20062;-29
2022/12/03 04:49:05;;;;;;;9.07;4.03;;;;;;;7.13;100.00;101094.16;5087256;28;20067;-28
2022/12/03 04:51:30;;;;;;;8.57;5.20;;;;;;;7.29;100.00;101115.31;5087164;28;20032;-28
2022/12/03 04:53:55;;;;;;;9.07;4.55;;;;;;;7.20;100.00;101111.88;5068528;28;20115;-29
2022/12/03 04:56:21;;;;;;;8.65;4.53;;;;;;;7.18;100.00;101113.88;5086983;28;20474;-28
2022/12/03 04:58:46;;;;;;;12.07;9.52;;;;;;;7.31;100.00;101133.75;5087105;28;20055;-29
2022/12/03 05:01:12;;;;;;;12.50;7.80;;;;;;;7.28;100.00;101115.53;5068705;28;20039;-27
2022/12/03 05:03:37;;;;;;;13.65;10.80;;;;;;;7.24;100.00;101120.34;5068590;28;20499;-29
2022/12/03 05:06:03;;;;;;;8.18;5.25;;;;;;;7.32;100.00;101136.22;5087127;28;20115;-29
2022/12/03 05:08:28;;;;;;;15.07;11.98;;;;;;;7.36;100.00;101131.41;5086783;28;20408;-29
2022/12/03 05:10:53;;;;;;;13.60;8.27;;;;;;;7.42;100.00;101138.69;5086981;28;20093;-32
2022/12/03 05:13:19;;;;;;;16.27;10.38;;;;;;;7.42;100.00;101122.75;5086916;28;20032;-28
2022/12/03 05:15:44;;;;;;;16.25;11.52;;;;;;;7.40;100.00;101132.72;5086414;28;20032;-31
2022/12/03 05:18:09;;;;;;;31.25;19.15;;;;;;;7.41;100.00;101118.44;5086460;28;20059;-27
2022/12/03 05:20:41;;;;;;;43.95;32.30;;;;;;;7.20;100.00;101117.19;5086750;28;20027;-28
2022/12/03 05:23:11;;;;;;;75.93;42.08;;;;;;;7.26;100.00;101114.88;5069613;28;20488;-29
2022/12/03 05:25:37;;;;;;;439.30;167.95;;;;;;;7.20;100.00;101142.91;5068581;28;20046;-29
2022/12/03 05:28:03;;;;;;;692.80;342.45;;;;;;;7.02;100.00;101128.00;5086772;28;20468;-28
2022/12/03 05:30:28;;;;;;;473.33;175.82;;;;;;;7.33;100.00;101134.41;5086573;28;20251;-29
2022/12/03 05:32:54;;;;;;;69.47;40.20;;;;;;;7.33;100.00;101137.03;5086883;28;20406;-29
2022/12/03 05:35:19;;;;;;;18.13;10.88;;;;;;;7.28;100.00;101119.00;5086994;28;20020;-33
2022/12/03 05:37:45;;;;;;;43.95;33.65;;;;;;;7.26;100.00;101121.00;5086400;28;20468;-30
2022/12/03 05:40:11;;;;;;;42.95;27.80;;;;;;;7.24;100.00;101115.84;5086932;28;20031;-28
2022/12/03 05:45:28;;;;;;;164.73;44.28;;;;;;;7.38;100.00;101135.53;5087086;28;20108;-29
2022/12/03 05:47:55;;;;;;;105.05;32.72;;;;;;;7.13;100.00;101126.84;5068272;28;20065;-34
2022/12/03 05:50:23;;;;;;;41.63;14.53;;;;;;;6.99;100.00;101122.25;5086920;28;20165;-28
2022/12/03 05:52:49;;;;;;;46.23;14.53;;;;;;;7.18;100.00;101145.72;5068462;28;20278;-32
2022/12/03 05:55:15;;;;;;;502.00;141.38;;;;;;;7.23;100.00;101143.41;5086688;28;20353;-31
2022/12/03 05:57:41;;;;;;;458.08;115.07;;;;;;;7.22;100.00;101140.91;5086464;28;20028;-28
2022/12/03 06:00:11;;;;;;;333.73;90.78;;;;;;;7.35;100.00;101148.31;5071304;28;20016;-33
2022/12/03 06:02:37;;;;;;;191.13;53.80;;;;;;;7.33;100.00;101158.28;5072541;28;20401;-31
2022/12/03 06:05:02;;;;;;;125.00;35.00;;;;;;;7.47;100.00;101157.56;5090397;28;20024;-28
2022/12/03 06:07:28;;;;;;;519.95;135.70;;;;;;;7.46;100.00;101169.19;5072187;28;20035;-32
2022/12/03 06:09:53;;;;;;;19.25;9.57;;;;;;;7.48;100.00;101159.22;5071930;28;20036;-28
2022/12/03 06:12:19;;;;;;;287.60;72.35;;;;;;;7.43;100.00;101174.81;5090342;28;20032;-32
2022/12/03 06:14:44;;;;;;;108.47;34.47;;;;;;;7.62;100.00;101173.59;5090404;28;20061;-32
2022/12/03 06:17:09;;;;;;;519.72;145.55;;;;;;;7.72;100.00;101168.09;5071355;28;20142;-31
2022/12/03 06:19:35;;;;;;;131.05;40.25;;;;;;;7.59;100.00;101161.50;5089846;28;20391;-31
2022/12/03 06:22:00;;;;;;;11.57;6.20;;;;;;;7.71;100.00;101179.72;5089914;28;20490;-32
2022/12/03 06:24:26;;;;;;;29.67;12.13;;;;;;;7.56;100.00;101169.81;5071846;28;20650;-29
2022/12/03 06:26:51;;;;;;;26.67;10.75;;;;;;;7.75;100.00;101186.34;5090015;28;20032;-28
2022/12/03 06:29:17;;;;;;;23.00;10.38;;;;;;;7.49;100.00;101181.28;5071540;28;20114;-29
2022/12/03 06:31:42;;;;;;;21.70;9.88;;;;;;;7.49;100.00;101168.00;5089815;28;20024;-29
2022/12/03 06:34:08;;;;;;;323.63;89.63;;;;;;;7.51;100.00;101188.06;5089795;28;20043;-29
2022/12/03 06:36:33;;;;;;;338.50;89.25;;;;;;;7.61;100.00;101177.25;5089572;28;20169;-28
2022/12/03 06:38:58;;;;;;;204.77;53.75;;;;;;;7.48;100.00;101177.81;5089617;28;20483;-28
2022/12/03 06:41:24;;;;;;;456.67;122.72;;;;;;;7.60;100.00;101203.00;5071001;28;20035;-29
2022/12/03 06:43:49;;;;;;;351.40;107.05;;;;;;;7.50;100.00;101173.16;5089656;28;20032;-29
2022/12/03 06:46:15;;;;;;;606.67;169.55;;;;;;;7.60;100.00;101176.44;5071315;28;20044;-29
2022/12/03 06:48:40;;;;;;;624.28;183.70;;;;;;;7.77;100.00;101193.13;5089349;28;20411;-32
2022/12/03 06:51:05;;;;;;;954.92;326.35;;;;;;;7.78;100.00;101172.69;5089656;28;20036;-28
2022/12/03 06:53:31;;;;;;;177.93;54.67;;;;;;;7.73;100.00;101197.13;5089467;28;20039;-34
2022/12/03 06:55:56;;;;;;;482.92;138.13;;;;;;;7.79;100.00;101200.94;5089316;28;20031;-30
2022/12/03 06:58:22;;;;;;;172.75;59.45;;;;;;;7.67;100.00;101202.31;5089069;28;20035;-29
2022/12/03 07:00:47;;;;;;;131.40;47.58;;;;;;;7.69;100.00;101193.16;5071004;28;20043;-31
2022/12/03 07:03:12;;;;;;;338.40;139.95;;;;;;;7.79;100.00;101201.75;5088877;28;20111;-30
2022/12/03 07:05:38;;;;;;;68.32;32.15;;;;;;;7.65;100.00;101194.50;5089617;28;20135;-28
2022/12/03 07:08:04;;;;;;;53.67;26.67;;;;;;;7.89;100.00;101211.34;5089078;28;20491;-28
2022/12/03 07:10:29;;;;;;;490.98;200.25;;;;;;;7.92;100.00;101206.50;5088997;28;20088;-30
2022/12/03 07:12:54;;;;;;;284.63;120.47;;;;;;;7.74;100.00;101212.03;5089142;28;20860;-38
2022/12/03 07:15:20;;;;;;;112.22;60.35;;;;;;;7.96;100.00;101210.47;5070620;28;20032;-27
2022/12/03 07:17:45;;;;;;;76.05;46.15;;;;;;;7.90;100.00;101197.06;5088434;28;20755;-30
2022/12/03 07:20:11;;;;;;;20.83;11.90;;;;;;;7.90;100.00;101191.75;5088854;28;20032;-29
2022/12/03 07:22:37;;;;;;;23.95;16.05;;;;;;;8.04;100.00;101205.09;5089101;28;20039;-33
2022/12/03 07:25:03;;;;;;;14.02;9.65;;;;;;;8.20;100.00;101219.31;5088794;28;20509;-29
2022/12/03 07:27:28;;;;;;;23.67;17.60;;;;;;;7.93;100.00;101212.66;5088927;28;20058;-33
2022/12/03 07:29:53;;;;;;;25.70;18.83;;;;;;;8.01;100.00;101225.91;5088430;28;20127;-28
2022/12/03 07:32:19;;;;;;;30.95;22.67;;;;;;;10.20;99.22;101227.75;5087776;28;20404;-29
2022/12/03 07:34:44;;;;;;;59.28;37.33;;;;;;;10.88;92.22;101203.38;5088073;28;20089;-31
2022/12/03 07:37:10;;;;;;;34.83;22.27;;;;;;;10.86;92.71;101211.59;5070100;28;20016;-31
2022/12/03 07:39:35;;;;;;;16.90;10.15;;;;;;;10.71;89.59;101233.00;5088626;28;20035;-31
2022/12/03 07:42:01;;;;;;;16.95;9.95;;;;;;;10.75;92.47;101225.47;5088018;28;20031;-30
2022/12/03 07:44:27;;;;;;;21.77;13.45;;;;;;;10.74;91.59;101227.28;5088714;28;20059;-30
2022/12/03 07:46:52;;;;;;;33.53;26.67;;;;;;;9.95;94.41;101212.06;5069924;28;20032;-33
2022/12/03 07:49:18;;;;;;;19.67;14.05;;;;;;;11.77;88.92;101232.09;5088264;28;20476;-30
2022/12/03 07:51:52;;;;;;;24.88;17.77;;;;;;;10.71;89.58;101214.34;5087900;28;20030;-35
2022/12/03 07:54:18;;;;;;;35.25;26.52;;;;;;;10.12;94.76;101210.00;5088208;28;20036;-31
2022/12/03 07:56:44;;;;;;;23.50;17.63;;;;;;;11.44;89.81;101219.38;5087986;28;20031;-29
2022/12/03 07:59:09;;;;;;;47.97;27.20;;;;;;;11.04;88.83;101219.13;5087805;28;20032;-28
2022/12/03 08:01:35;;;;;;;26.95;15.40;;;;;;;9.65;94.52;101220.09;5087814;28;20024;-28
2022/12/03 08:04:00;;;;;;;94.03;42.35;;;;;;;9.37;96.09;101200.44;5069394;28;20035;-31
2022/12/03 08:06:25;;;;;;;66.80;32.03;;;;;;;9.98;94.49;101222.34;5087915;28;20035;-32
2022/12/03 08:08:51;;;;;;;155.32;62.72;;;;;;;9.22;97.12;101219.88;5087823;28;20028;-28
2022/12/03 08:11:16;;;;;;;90.03;42.75;;;;;;;9.46;97.49;101223.31;5087828;28;20102;-32
2022/12/03 08:13:42;;;;;;;112.10;44.05;;;;;;;8.99;98.24;101203.97;5087343;28;20038;-27
2022/12/03 08:16:15;;;;;;;195.98;73.97;;;;;;;9.17;97.58;101224.09;5087123;28;20028;-37
2022/12/03 08:18:41;;;;;;;155.98;60.60;;;;;;;8.89;99.01;101214.03;5087630;28;20028;-28
2022/12/03 08:21:10;;;;;;;23.40;11.88;;;;;;;8.65;100.00;101212.41;5068748;28;20035;-27
2022/12/03 08:23:35;;;;;;;63.80;27.08;;;;;;;8.76;99.46;101203.16;5087500;28;20024;-30
2022/12/03 08:26:05;;;;;;;39.25;20.40;;;;;;;8.54;100.00;101229.59;5087395;28;20103;-28
2022/12/03 08:28:31;;;;;;;89.50;42.00;;;;;;;8.53;100.00;101229.78;5087787;28;20532;-31
2022/12/03 08:31:04;;;;;;;20.92;11.85;;;;;;;8.51;100.00;101232.59;5087328;28;20028;-28
2022/12/03 08:33:35;;;;;;;12.50;8.63;;;;;;;8.43;100.00;101230.00;5087478;28;20035;-30
2022/12/03 08:36:15;;;;;;;12.15;8.93;;;;;;;8.26;100.00;101221.28;5084273;28;20089;-29
2022/12/03 08:38:46;;;;;;;18.45;13.35;;;;;;;8.29;100.00;101230.72;5087489;28;20024;-30
2022/12/03 08:41:15;;;;;;;61.35;34.55;;;;;;;8.33;100.00;101224.88;5087235;28;20035;-30
2022/12/03 08:43:42;;;;;;;34.03;24.77;;;;;;;8.39;100.00;101216.19;5087397;28;20119;-28
2022/12/03 08:46:18;;;;;;;13.20;8.27;;;;;;;8.59;100.00;101234.38;5068829;28;20067;-33
2022/12/03 08:48:45;;;;;;;10.20;6.63;;;;;;;8.54;100.00;101237.59;5068765;28;20074;-32
2022/12/03 08:51:26;;;;;;;11.63;7.15;;;;;;;8.54;100.00;101232.25;5087109;28;20062;-27
2022/12/03 08:53:57;;;;;;;13.02;7.47;;;;;;;8.42;100.00;101234.50;5086903;28;20032;-28
2022/12/03 08:56:25;;;;;;;13.50;7.57;;;;;;;8.54;100.00;101220.78;5068909;28;20024;-31
2022/12/03 08:58:58;;;;;;;26.05;17.63;;;;;;;8.77;100.00;101208.31;5087146;28;20023;-29
2022/12/03 09:01:33;;;;;;;26.45;17.60;;;;;;;8.98;100.00;101217.44;5087229;28;20038;-29
2022/12/03 09:04:40;;;;;;;31.00;21.70;;;;;;;8.96;99.45;101224.78;5068464;28;20650;-32
2022/12/03 09:07:05;;;;;;;14.07;9.82;;;;;;;8.94;100.00;101213.50;5086662;28;20750;-28
2022/12/03 09:09:32;;;;;;;24.25;15.73;;;;;;;8.81;100.00;101222.91;5086984;28;20027;-28
2022/12/03 09:11:57;;;;;;;8.40;5.78;;;;;;;8.56;100.00;101218.78;5086939;28;20071;-28
2022/12/03 09:14:23;;;;;;;10.75;6.90;;;;;;;8.78;100.00;101217.13;5086641;28;20107;-29
2022/12/03 09:16:54;;;;;;;22.08;18.38;;;;;;;8.86;100.00;101201.09;5068245;28;20051;-32
2022/12/03 09:19:19;;;;;;;16.67;10.63;;;;;;;8.92;100.00;101204.88;5068500;28;20028;-34
2022/12/03 09:21:45;;;;;;;11.48;7.78;;;;;;;8.75;100.00;101206.84;5086461;28;20050;-30
2022/12/03 09:24:10;;;;;;;13.90;8.98;;;;;;;8.78;100.00;101201.97;5086771;28;20115;-35
2022/12/03 09:26:36;;;;;;;13.48;10.27;;;;;;;8.76;100.00;101192.53;5086623;28;20400;-29
2022/12/03 09:29:01;;;;;;;16.52;10.77;;;;;;;8.73;100.00;101183.09;5086492;28;20030;-32
2022/12/03 09:31:27;;;;;;;19.90;14.23;;;;;;;8.53;100.00;101176.59;5086643;28;20451;-29
2022/12/03 09:33:52;;;;;;;14.57;8.93;;;;;;;8.94;100.00;101205.50;5089404;28;20034;-28
2022/12/03 09:36:17;;;;;;;11.43;7.22;;;;;;;8.74;100.00;101179.41;5072348;28;20028;-28
2022/12/03 09:38:43;;;;;;;12.00;6.95;;;;;;;8.73;100.00;101183.09;5072368;28;20058;-28
2022/12/03 09:41:08;;;;;;;15.75;9.85;;;;;;;8.68;100.00;101177.47;5090586;28;20024;-31
2022/12/03 09:43:34;;;;;;;33.03;17.98;;;;;;;8.65;100.00;101199.09;5090478;28;20027;-30
2022/12/03 09:46:00;;;;;;;16.13;10.30;;;;;;;8.98;100.00;101190.84;5090331;28;20480;-29
2022/12/03 09:48:26;;;;;;;18.70;11.40;;;;;;;9.03;100.00;101183.97;5090461;28;20024;-30
2022/12/03 09:50:51;;;;;;;20.67;11.15;;;;;;;9.07;100.00;101192.41;5090840;28;20032;-29
2022/12/03 09:53:20;;;;;;;75.00;34.25;;;;;;;9.09;100.00;101182.41;5090380;28;20035;-28
2022/12/03 09:55:47;;;;;;;67.47;32.20;;;;;;;9.17;100.00;101174.34;5071876;28;20114;-28
2022/12/03 09:58:15;;;;;;;37.97;25.63;;;;;;;8.97;100.00;101178.53;5090045;28;20032;-29
2022/12/03 10:00:45;;;;;;;41.00;23.90;;;;;;;8.87;100.00;101162.84;5090911;28;20118;-29
2022/12/03 10:03:13;;;;;;;16.77;10.48;;;;;;;8.92;100.00;101176.44;5090057;28;20036;-35
2022/12/03 10:05:39;;;;;;;16.10;10.68;;;;;;;8.93;100.00;101159.47;5089932;28;20396;-29
2022/12/03 10:08:07;;;;;;;8.45;5.30;;;;;;;9.22;100.00;101173.81;5090293;28;20066;-34
2022/12/03 10:10:34;;;;;;;9.35;5.43;;;;;;;8.84;100.00;101164.00;5071741;28;20480;-28
2022/12/03 10:13:00;;;;;;;11.77;6.45;;;;;;;8.84;100.00;101158.69;5089957;28;20038;-30
2022/12/03 10:15:25;;;;;;;16.10;12.05;;;;;;;8.72;100.00;101149.50;5089990;28;20035;-32
2022/12/03 10:17:53;;;;;;;15.88;13.07;;;;;;;9.01;100.00;101170.03;5089560;28;20543;-32
2022/12/03 10:20:22;;;;;;;10.63;6.32;;;;;;;9.19;100.00;101169.69;5071572;28;20054;-29
2022/12/03 10:22:48;;;;;;;13.65;9.25;;;;;;;9.19;99.43;101166.19;5071312;28;20031;-29
2022/12/03 10:25:21;;;;;;;13.95;8.90;;;;;;;9.12;98.87;101151.97;5089514;28;20101;-32
2022/12/03 10:28:01;;;;;;;18.67;15.40;;;;;;;9.11;100.00;101142.31;5089914;28;20036;-29
2022/12/03 10:30:27;;;;;;;12.43;8.30;;;;;;;9.05;100.00;101144.72;5090065;28;20569;-33
2022/12/03 10:32:55;;;;;;;17.00;12.95;;;;;;;9.14;100.00;101155.28;5071466;28;20442;-30
2022/12/03 10:35:36;;;;;;;77.82;32.05;;;;;;;9.16;100.00;101146.09;5089956;28;20032;-31
2022/12/03 10:38:17;;;;;;;42.72;22.80;;;;;;;9.42;100.00;101166.13;5071136;28;20032;-31
2022/12/03 10:40:44;;;;;;;16.58;10.55;;;;;;;9.56;98.69;101161.75;5089864;28;20031;-29
2022/12/03 10:43:16;;;;;;;13.10;7.85;;;;;;;9.52;98.65;101150.69;5089978;28;20427;-28
2022/12/03 10:45:47;;;;;;;17.40;9.57;;;;;;;9.64;97.76;101156.34;5088618;28;20032;-30
2022/12/03 10:48:16;;;;;;;13.35;8.35;;;;;;;9.60;98.52;101168.38;5089611;28;20062;-33
2022/12/03 10:50:53;;;;;;;10.88;6.75;;;;;;;9.37;98.28;101173.81;5089481;28;20028;-33
2022/12/03 10:53:21;;;;;;;24.93;10.63;;;;;;;9.42;99.62;101166.13;5071428;28;20038;-32
2022/12/03 10:55:50;;;;;;;100.93;37.45;;;;;;;9.56;98.22;101162.63;5089027;28;20032;-29
2022/12/03 10:58:36;;;;;;;23.83;11.75;;;;;;;9.47;99.04;101157.56;5070932;28;20113;-34
2022/12/03 11:01:09;;;;;;;25.85;11.63;;;;;;;9.59;99.69;101156.91;5071098;28;20040;-33
2022/12/03 11:03:35;;;;;;;65.03;28.02;;;;;;;9.61;99.98;101133.56;5089217;28;20024;-30
2022/12/03 11:06:01;;;;;;;31.05;22.80;;;;;;;9.70;99.69;101146.78;5070846;28;20035;-29
2022/12/03 11:08:31;;;;;;;11.70;6.75;;;;;;;9.77;96.33;101158.34;5089259;28;20560;-29
2022/12/03 11:11:07;;;;;;;142.50;49.60;;;;;;;9.95;95.12;101158.78;5089182;28;20036;-34
2022/12/03 11:13:32;;;;;;;245.65;91.07;;;;;;;9.57;95.17;101150.94;5089134;28;20046;-31
2022/12/03 11:16:03;;;;;;;62.75;26.70;;;;;;;9.72;97.44;101155.41;5088535;28;20024;-28
2022/12/03 11:18:34;;;;;;;46.35;22.60;;;;;;;9.86;94.72;101159.88;5070596;28;20056;-30
2022/12/03 11:21:04;;;;;;;44.78;25.95;;;;;;;9.62;95.74;101137.91;5088850;28;20089;-30
2022/12/03 11:23:47;;;;;;;345.60;132.75;;;;;;;9.78;97.09;101152.00;5070371;28;20039;-28
2022/12/03 11:26:36;;;;;;;129.68;51.67;;;;;;;9.93;95.67;101146.63;5070713;28;20119;-30
2022/12/03 11:29:03;;;;;;;152.38;66.15;;;;;;;9.86;95.22;101142.06;5059391;28;20036;-33
2022/12/03 11:31:37;;;;;;;21.98;12.63;;;;;;;9.89;96.00;101156.88;5088012;28;20042;-28
2022/12/03 11:34:17;;;;;;;46.83;22.02;;;;;;;10.02;95.14;101153.50;5088228;28;20028;-33
2022/12/03 11:37:10;;;;;;;18.63;11.23;;;;;;;9.95;95.32;101161.44;5088757;28;20020;-29
2022/12/03 11:39:48;;;;;;;27.42;16.63;;;;;;;9.82;95.38;101161.28;5088706;28;20055;-28